Virgie Cenac — WDC2765 — position and weather

sailwx.info

Track history (hours):
 
Tides and Currents Weather Stations Pressure Air Temp Water Temp Dewpoint Dewpoint Depression Visibility Wind Speed Wind Dir Waves Ship Positions

Virgie Cenac

Owner: Cenac Marine Transportation, Inc., Houma, LA. More information available from US FCC via Universal Licensing System and Coast Guard Vessel Documentation Center.

Last reported at 2017-Oct-03 01:53 UTC. Time now 2017-Oct-18 04:01 UTC.
Position N 29°54' W 093°21'.
Warning: this ship's position is 15 days out of date.

Length 18 m; draft 3 m.

Type: Towing. MMSI: 366997430.

Date/timePositionNaut miles runAvg speedWind from/ knotsBaromVisibWave heightAir tempDewpointWater temp
2017-Oct-03 01:53N 29°54' W 093°21'3 7.9
2017-Oct-03 01:30N 29°57' W 093°20'4 7.7
2017-Oct-03 01:00N 30°01' W 093°20'4 8.0
2017-Oct-03 00:31N 30°05' W 093°20'3 5.2
2017-Oct-03 00:00N 30°04' W 093°22'3 6.6
2017-Oct-02 23:30N 30°04' W 093°26'  
2017-Sep-25 17:59N 29°37' W 094°58'2 4.2
2017-Sep-25 17:30N 29°37' W 095°00'1 1.3
2017-Sep-25 17:00N 29°37' W 095°01'0 0.1
2017-Sep-25 16:30N 29°37' W 095°01'0 0.0
2017-Sep-25 16:00N 29°37' W 095°01'0 0.1
2017-Sep-25 15:30N 29°37' W 095°01'0 0.1
2017-Sep-25 15:00N 29°37' W 095°01'0 0.0
2017-Sep-25 14:30N 29°37' W 095°01'0 0.2
2017-Sep-25 14:00N 29°37' W 095°01'3 0.4
2017-Sep-25 05:19N 29°38' W 094°57'0 0.0
2017-Sep-24 20:00N 29°38' W 094°57'0 0.0
2017-Sep-24 19:27N 29°38' W 094°57'0 0.0
2017-Sep-24 18:58N 29°38' W 094°57'0 0.0
2017-Sep-24 18:28N 29°38' W 094°57'0 0.0
2017-Sep-24 17:59N 29°38' W 094°57'0 0.0
2017-Sep-24 17:30N 29°38' W 094°57'0 0.0
2017-Sep-24 16:58N 29°38' W 094°57'0 0.1
2017-Sep-24 15:11N 29°38' W 094°57'0 2.0
2017-Sep-24 14:56N 29°37' W 094°57'1 0.6
2017-Sep-24 13:50N 29°38' W 094°57'0 0.1
2017-Sep-24 13:30N 29°38' W 094°57'0 0.0
2017-Sep-24 12:53N 29°38' W 094°57'0 0.3
2017-Sep-24 12:10N 29°38' W 094°57'0 0.0
2017-Sep-24 12:00N 29°38' W 094°57'0 0.0
2017-Sep-24 11:30N 29°38' W 094°57'0 0.0
2017-Sep-24 10:59N 29°38' W 094°57'0 0.0
2017-Sep-24 10:30N 29°38' W 094°57'0 0.0
2017-Sep-24 10:00N 29°38' W 094°57'0 0.0
2017-Sep-24 09:27N 29°38' W 094°57'0 0.0
2017-Sep-24 09:00N 29°38' W 094°57'0 0.0
2017-Sep-24 08:28N 29°38' W 094°57'0 0.0
2017-Sep-24 07:57N 29°38' W 094°57'0 0.0
2017-Sep-24 07:29N 29°38' W 094°57'0 0.0
2017-Sep-24 06:59N 29°38' W 094°57'0 0.0
2017-Sep-24 06:30N 29°38' W 094°57'0 0.0
2017-Sep-24 06:00N 29°38' W 094°57'0 0.2
2017-Sep-24 05:29N 29°38' W 094°57'  
Track history (hours):
 
Tides and Currents Weather Stations Pressure Air Temp Water Temp Dewpoint Dewpoint Depression Visibility Wind Speed Wind Dir Waves Ship Positions

Virgie Cenac

Owner: Cenac Marine Transportation, Inc., Houma, LA. More information available from US FCC via Universal Licensing System and Coast Guard Vessel Documentation Center.

Last reported at 2017-Oct-03 01:53 UTC. Time now 2017-Oct-18 04:01 UTC.
Position N 29°54' W 093°21'.
Warning: this ship's position is 15 days out of date.

Length 18 m; draft 3 m.

Type: Towing. MMSI: 366997430.

Date/timePositionNaut miles runAvg speedWind from/ knotsBaromVisibWave heightAir tempDewpointWater temp
2017-Oct-03 01:53N 29°54' W 093°21'3 7.9
2017-Oct-03 01:30N 29°57' W 093°20'4 7.7
2017-Oct-03 01:00N 30°01' W 093°20'4 8.0
2017-Oct-03 00:31N 30°05' W 093°20'3 5.2
2017-Oct-03 00:00N 30°04' W 093°22'3 6.6
2017-Oct-02 23:30N 30°04' W 093°26'  
2017-Sep-25 17:59N 29°37' W 094°58'2 4.2
2017-Sep-25 17:30N 29°37' W 095°00'1 1.3
2017-Sep-25 17:00N 29°37' W 095°01'0 0.1
2017-Sep-25 16:30N 29°37' W 095°01'0 0.0
2017-Sep-25 16:00N 29°37' W 095°01'0 0.1
2017-Sep-25 15:30N 29°37' W 095°01'0 0.1
2017-Sep-25 15:00N 29°37' W 095°01'0 0.0
2017-Sep-25 14:30N 29°37' W 095°01'0 0.2
2017-Sep-25 14:00N 29°37' W 095°01'3 0.4
2017-Sep-25 05:19N 29°38' W 094°57'0 0.0
2017-Sep-24 20:00N 29°38' W 094°57'0 0.0
2017-Sep-24 19:27N 29°38' W 094°57'0 0.0
2017-Sep-24 18:58N 29°38' W 094°57'0 0.0
2017-Sep-24 18:28N 29°38' W 094°57'0 0.0
2017-Sep-24 17:59N 29°38' W 094°57'0 0.0
2017-Sep-24 17:30N 29°38' W 094°57'0 0.0
2017-Sep-24 16:58N 29°38' W 094°57'0 0.1
2017-Sep-24 15:11N 29°38' W 094°57'0 2.0
2017-Sep-24 14:56N 29°37' W 094°57'1 0.6
2017-Sep-24 13:50N 29°38' W 094°57'0 0.1
2017-Sep-24 13:30N 29°38' W 094°57'0 0.0
2017-Sep-24 12:53N 29°38' W 094°57'0 0.3
2017-Sep-24 12:10N 29°38' W 094°57'0 0.0
2017-Sep-24 12:00N 29°38' W 094°57'0 0.0
2017-Sep-24 11:30N 29°38' W 094°57'0 0.0
2017-Sep-24 10:59N 29°38' W 094°57'0 0.0
2017-Sep-24 10:30N 29°38' W 094°57'0 0.0
2017-Sep-24 10:00N 29°38' W 094°57'0 0.0
2017-Sep-24 09:27N 29°38' W 094°57'0 0.0
2017-Sep-24 09:00N 29°38' W 094°57'0 0.0
2017-Sep-24 08:28N 29°38' W 094°57'0 0.0
2017-Sep-24 07:57N 29°38' W 094°57'0 0.0
2017-Sep-24 07:29N 29°38' W 094°57'0 0.0
2017-Sep-24 06:59N 29°38' W 094°57'0 0.0
2017-Sep-24 06:30N 29°38' W 094°57'0 0.0
2017-Sep-24 06:00N 29°38' W 094°57'0 0.2
2017-Sep-24 05:29N 29°38' W 094°57'  

Dump ship's entire track history